Country
Station

 

Weather  for  Winchester Regional  -  United States    United States

  
8 °C (46 °F)
    
 
 

Current METAR for Winchester Regional is :

KOKV 221435Z AUTO 31018G22KT 10SM BKN037 BKN046 08/01 A3003 RMK AO2

 

This is a report for Winchester Regional - United States.
 
The report was made 9 minutes ago, at 14:35 UTC .
The wind was blowing at a speed of 9.3 meters per second (20.7 miles per hour) with gusts up to 11.3 meters per second (25.3 miles per hour) from northwest (310°).
 
The temperature was 8 °C (46 °F), with a dew-point at 1 °C (34 °F).
The atmospheric pressure was 1017 hPa (30.03 inHg).
The relative humidity was 61.2%.
 
There were broken clouds at a height of 1128 meters (3700 feet) and broken clouds at a height of 1402 meters (4600 feet).
 
The overall visibility was 16.1 kilometers (10.0 miles).
 

 
 
 
 

Country :   A   B   C   D   E   F   G   H   I   J   K   L   M   N   O   P   Q   R   S   T   U   V   W   Y   Z

 

Site Info  |  Disclaimer  |  Credits  |  Privacy
Contact us  |  Add to favorites
© 2013-2017 METARs - All rights reserved